sensor_id;sensor_type;location;lat;lon;timestamp;P1;durP1;ratioP1;P2;durP2;ratioP2
14191;SDS011;7177;48.572;7.838;2024-03-23T00:55:53;4.97;;;3.17;;
14191;SDS011;7177;48.572;7.838;2024-03-23T00:58:19;6.40;;;3.83;;
14191;SDS011;7177;48.572;7.838;2024-03-23T01:00:44;6.83;;;3.30;;
14191;SDS011;7177;48.572;7.838;2024-03-23T01:03:10;4.63;;;3.20;;
14191;SDS011;7177;48.572;7.838;2024-03-23T01:05:35;8.03;;;3.70;;
14191;SDS011;7177;48.572;7.838;2024-03-23T01:08:01;5.37;;;3.50;;
14191;SDS011;7177;48.572;7.838;2024-03-23T01:10:27;8.73;;;3.50;;
14191;SDS011;7177;48.572;7.838;2024-03-23T01:12:52;7.20;;;3.53;;
14191;SDS011;7177;48.572;7.838;2024-03-23T01:15:18;4.73;;;3.43;;
14191;SDS011;7177;48.572;7.838;2024-03-23T01:17:43;6.87;;;3.37;;
14191;SDS011;7177;48.572;7.838;2024-03-23T01:20:09;6.10;;;3.50;;
14191;SDS011;7177;48.572;7.838;2024-03-23T01:22:35;8.80;;;3.50;;
14191;SDS011;7177;48.572;7.838;2024-03-23T01:25:00;7.10;;;3.17;;
14191;SDS011;7177;48.572;7.838;2024-03-23T01:27:26;3.60;;;3.30;;
14191;SDS011;7177;48.572;7.838;2024-03-23T01:29:51;4.97;;;3.63;;
14191;SDS011;7177;48.572;7.838;2024-03-23T01:32:17;5.30;;;3.43;;
14191;SDS011;7177;48.572;7.838;2024-03-23T01:34:43;10.17;;;3.90;;
14191;SDS011;7177;48.572;7.838;2024-03-23T01:37:09;7.90;;;4.73;;
14191;SDS011;7177;48.572;7.838;2024-03-23T01:39:35;6.40;;;3.60;;
14191;SDS011;7177;48.572;7.838;2024-03-23T01:42:00;5.50;;;3.57;;
14191;SDS011;7177;48.572;7.838;2024-03-23T01:44:26;4.17;;;3.00;;
14191;SDS011;7177;48.572;7.838;2024-03-23T01:46:51;5.30;;;3.50;;
14191;SDS011;7177;48.572;7.838;2024-03-23T01:49:17;5.00;;;3.33;;
14191;SDS011;7177;48.572;7.838;2024-03-23T01:51:42;6.87;;;3.80;;
14191;SDS011;7177;48.572;7.838;2024-03-23T01:54:09;3.90;;;3.30;;
14191;SDS011;7177;48.572;7.838;2024-03-23T01:56:35;4.33;;;3.20;;
14191;SDS011;7177;48.572;7.838;2024-03-23T01:59:01;5.57;;;3.70;;
14191;SDS011;7177;48.572;7.838;2024-03-23T02:01:27;5.77;;;3.70;;
14191;SDS011;7177;48.572;7.838;2024-03-23T02:03:52;5.47;;;3.57;;
14191;SDS011;7177;48.572;7.838;2024-03-23T02:06:18;6.43;;;4.20;;
14191;SDS011;7177;48.572;7.838;2024-03-23T02:08:43;6.83;;;4.80;;
14191;SDS011;7177;48.572;7.838;2024-03-23T02:11:09;5.50;;;4.30;;
14191;SDS011;7177;48.572;7.838;2024-03-23T02:13:35;5.67;;;4.40;;
14191;SDS011;7177;48.572;7.838;2024-03-23T02:16:00;5.53;;;4.27;;
14191;SDS011;7177;48.572;7.838;2024-03-23T02:18:26;4.63;;;3.77;;
14191;SDS011;7177;48.572;7.838;2024-03-23T02:20:52;7.43;;;4.40;;
14191;SDS011;7177;48.572;7.838;2024-03-23T02:23:17;5.50;;;3.90;;
14191;SDS011;7177;48.572;7.838;2024-03-23T02:25:43;7.93;;;4.10;;
14191;SDS011;7177;48.572;7.838;2024-03-23T02:28:09;9.20;;;4.80;;
14191;SDS011;7177;48.572;7.838;2024-03-23T02:30:35;5.93;;;4.73;;
14191;SDS011;7177;48.572;7.838;2024-03-23T02:33:01;11.60;;;4.63;;
14191;SDS011;7177;48.572;7.838;2024-03-23T02:35:26;7.27;;;4.40;;
14191;SDS011;7177;48.572;7.838;2024-03-23T02:37:52;7.10;;;4.63;;
14191;SDS011;7177;48.572;7.838;2024-03-23T02:40:19;6.50;;;5.23;;
14191;SDS011;7177;48.572;7.838;2024-03-23T02:42:45;6.07;;;4.87;;
14191;SDS011;7177;48.572;7.838;2024-03-23T02:45:11;8.63;;;4.80;;
14191;SDS011;7177;48.572;7.838;2024-03-23T02:47:36;9.73;;;5.27;;
14191;SDS011;7177;48.572;7.838;2024-03-23T02:50:02;6.33;;;4.67;;
14191;SDS011;7177;48.572;7.838;2024-03-23T02:52:29;7.97;;;4.57;;
14191;SDS011;7177;48.572;7.838;2024-03-23T02:54:55;9.60;;;5.00;;
14191;SDS011;7177;48.572;7.838;2024-03-23T02:57:20;6.43;;;4.73;;
14191;SDS011;7177;48.572;7.838;2024-03-23T02:59:46;5.73;;;4.70;;
14191;SDS011;7177;48.572;7.838;2024-03-23T03:02:12;8.87;;;4.70;;
14191;SDS011;7177;48.572;7.838;2024-03-23T03:04:39;6.53;;;4.33;;
14191;SDS011;7177;48.572;7.838;2024-03-23T03:07:04;8.60;;;4.87;;
14191;SDS011;7177;48.572;7.838;2024-03-23T03:09:30;5.93;;;4.07;;
14191;SDS011;7177;48.572;7.838;2024-03-23T03:11:56;7.23;;;4.33;;
14191;SDS011;7177;48.572;7.838;2024-03-23T03:14:22;9.10;;;5.27;;
14191;SDS011;7177;48.572;7.838;2024-03-23T03:16:47;6.93;;;5.03;;
14191;SDS011;7177;48.572;7.838;2024-03-23T03:19:13;9.50;;;5.47;;
14191;SDS011;7177;48.572;7.838;2024-03-23T03:21:39;10.33;;;4.90;;
14191;SDS011;7177;48.572;7.838;2024-03-23T03:24:05;8.37;;;5.77;;
14191;SDS011;7177;48.572;7.838;2024-03-23T03:26:31;7.93;;;5.23;;
14191;SDS011;7177;48.572;7.838;2024-03-23T03:28:57;9.50;;;6.00;;
14191;SDS011;7177;48.572;7.838;2024-03-23T03:31:22;10.97;;;6.47;;
14191;SDS011;7177;48.572;7.838;2024-03-23T03:33:49;11.53;;;6.53;;
14191;SDS011;7177;48.572;7.838;2024-03-23T03:36:15;11.50;;;6.23;;
14191;SDS011;7177;48.572;7.838;2024-03-23T03:38:41;9.20;;;5.87;;
14191;SDS011;7177;48.572;7.838;2024-03-23T03:41:07;10.37;;;5.73;;
14191;SDS011;7177;48.572;7.838;2024-03-23T03:43:32;14.17;;;6.80;;
14191;SDS011;7177;48.572;7.838;2024-03-23T03:45:59;15.33;;;8.40;;
14191;SDS011;7177;48.572;7.838;2024-03-23T03:48:25;15.87;;;9.53;;
14191;SDS011;7177;48.572;7.838;2024-03-23T03:50:52;16.77;;;11.37;;
14191;SDS011;7177;48.572;7.838;2024-03-23T03:53:18;16.40;;;13.43;;
14191;SDS011;7177;48.572;7.838;2024-03-23T03:55:44;24.33;;;15.53;;
14191;SDS011;7177;48.572;7.838;2024-03-23T03:58:09;18.47;;;14.53;;
14191;SDS011;7177;48.572;7.838;2024-03-23T04:00:35;21.20;;;14.80;;
14191;SDS011;7177;48.572;7.838;2024-03-23T04:03:01;22.57;;;15.40;;
14191;SDS011;7177;48.572;7.838;2024-03-23T04:05:26;20.87;;;15.80;;
14191;SDS011;7177;48.572;7.838;2024-03-23T04:07:52;23.67;;;16.07;;
14191;SDS011;7177;48.572;7.838;2024-03-23T04:10:18;20.90;;;15.57;;
14191;SDS011;7177;48.572;7.838;2024-03-23T04:12:43;23.03;;;15.27;;
14191;SDS011;7177;48.572;7.838;2024-03-23T04:15:12;20.13;;;15.37;;
14191;SDS011;7177;48.572;7.838;2024-03-23T04:17:37;21.70;;;15.10;;
14191;SDS011;7177;48.572;7.838;2024-03-23T04:20:03;21.23;;;14.67;;
14191;SDS011;7177;48.572;7.838;2024-03-23T04:22:35;20.53;;;14.57;;
14191;SDS011;7177;48.572;7.838;2024-03-23T04:25:04;20.07;;;14.27;;
14191;SDS011;7177;48.572;7.838;2024-03-23T04:27:34;20.00;;;14.90;;
14191;SDS011;7177;48.572;7.838;2024-03-23T04:30:00;18.27;;;13.43;;
14191;SDS011;7177;48.572;7.838;2024-03-23T04:32:26;17.20;;;13.43;;
14191;SDS011;7177;48.572;7.838;2024-03-23T04:34:52;21.03;;;13.70;;
14191;SDS011;7177;48.572;7.838;2024-03-23T04:37:19;16.47;;;12.13;;
14191;SDS011;7177;48.572;7.838;2024-03-23T04:39:45;18.23;;;12.50;;
14191;SDS011;7177;48.572;7.838;2024-03-23T04:42:11;15.73;;;12.00;;
14191;SDS011;7177;48.572;7.838;2024-03-23T04:44:37;18.93;;;12.40;;
14191;SDS011;7177;48.572;7.838;2024-03-23T04:47:02;16.50;;;12.33;;
14191;SDS011;7177;48.572;7.838;2024-03-23T04:49:28;14.90;;;10.47;;
14191;SDS011;7177;48.572;7.838;2024-03-23T04:51:54;12.67;;;9.97;;
14191;SDS011;7177;48.572;7.838;2024-03-23T04:54:19;10.20;;;7.73;;
14191;SDS011;7177;48.572;7.838;2024-03-23T04:56:45;9.17;;;6.53;;
14191;SDS011;7177;48.572;7.838;2024-03-23T04:59:11;7.83;;;6.13;;
14191;SDS011;7177;48.572;7.838;2024-03-23T05:01:36;9.43;;;5.40;;
14191;SDS011;7177;48.572;7.838;2024-03-23T05:04:03;7.03;;;4.70;;
14191;SDS011;7177;48.572;7.838;2024-03-23T05:06:29;6.47;;;4.67;;
14191;SDS011;7177;48.572;7.838;2024-03-23T05:08:54;5.23;;;3.80;;
14191;SDS011;7177;48.572;7.838;2024-03-23T05:11:20;5.63;;;2.83;;
14191;SDS011;7177;48.572;7.838;2024-03-23T05:13:45;3.33;;;2.63;;
14191;SDS011;7177;48.572;7.838;2024-03-23T05:16:11;2.70;;;2.27;;
14191;SDS011;7177;48.572;7.838;2024-03-23T05:18:37;2.77;;;1.90;;
14191;SDS011;7177;48.572;7.838;2024-03-23T05:21:02;3.67;;;2.00;;
14191;SDS011;7177;48.572;7.838;2024-03-23T05:23:28;2.83;;;1.63;;
14191;SDS011;7177;48.572;7.838;2024-03-23T05:25:54;1.77;;;1.60;;
14191;SDS011;7177;48.572;7.838;2024-03-23T05:28:20;2.90;;;1.57;;
14191;SDS011;7177;48.572;7.838;2024-03-23T05:30:50;2.00;;;1.80;;
14191;SDS011;7177;48.572;7.838;2024-03-23T05:33:17;3.20;;;2.30;;
14191;SDS011;7177;48.572;7.838;2024-03-23T05:35:43;2.03;;;1.60;;
14191;SDS011;7177;48.572;7.838;2024-03-23T05:38:09;1.60;;;1.50;;
14191;SDS011;7177;48.572;7.838;2024-03-23T05:40:35;1.50;;;1.37;;
14191;SDS011;7177;48.572;7.838;2024-03-23T05:43:02;5.87;;;1.57;;
14191;SDS011;7177;48.572;7.838;2024-03-23T05:45:28;1.30;;;1.20;;
14191;SDS011;7177;48.572;7.838;2024-03-23T05:47:54;2.97;;;1.20;;
14191;SDS011;7177;48.572;7.838;2024-03-23T05:50:21;1.57;;;1.40;;
14191;SDS011;7177;48.572;7.838;2024-03-23T05:52:47;2.60;;;1.43;;
14191;SDS011;7177;48.572;7.838;2024-03-23T05:55:13;6.30;;;1.50;;
14191;SDS011;7177;48.572;7.838;2024-03-23T05:57:39;1.63;;;1.30;;
14191;SDS011;7177;48.572;7.838;2024-03-23T06:00:05;3.57;;;1.30;;
14191;SDS011;7177;48.572;7.838;2024-03-23T06:02:35;1.60;;;1.20;;
14191;SDS011;7177;48.572;7.838;2024-03-23T06:05:01;1.10;;;1.00;;
14191;SDS011;7177;48.572;7.838;2024-03-23T06:07:27;0.87;;;0.87;;
14191;SDS011;7177;48.572;7.838;2024-03-23T06:09:53;0.83;;;0.83;;
14191;SDS011;7177;48.572;7.838;2024-03-23T06:12:18;0.83;;;0.80;;
14191;SDS011;7177;48.572;7.838;2024-03-23T06:14:46;1.53;;;1.00;;
14191;SDS011;7177;48.572;7.838;2024-03-23T06:17:13;2.67;;;0.90;;
14191;SDS011;7177;48.572;7.838;2024-03-23T06:19:39;1.07;;;0.97;;
14191;SDS011;7177;48.572;7.838;2024-03-23T06:22:04;1.93;;;0.80;;
14191;SDS011;7177;48.572;7.838;2024-03-23T06:24:31;0.80;;;0.80;;
14191;SDS011;7177;48.572;7.838;2024-03-23T06:26:57;1.87;;;0.70;;
14191;SDS011;7177;48.572;7.838;2024-03-23T06:29:23;1.63;;;0.93;;
14191;SDS011;7177;48.572;7.838;2024-03-23T06:31:54;0.70;;;0.63;;
14191;SDS011;7177;48.572;7.838;2024-03-23T06:34:20;0.80;;;0.80;;
14191;SDS011;7177;48.572;7.838;2024-03-23T06:36:47;0.80;;;0.80;;
14191;SDS011;7177;48.572;7.838;2024-03-23T06:39:14;1.03;;;1.00;;
14191;SDS011;7177;48.572;7.838;2024-03-23T06:41:41;0.97;;;0.90;;
14191;SDS011;7177;48.572;7.838;2024-03-23T06:44:19;1.10;;;1.10;;
14191;SDS011;7177;48.572;7.838;2024-03-23T06:46:45;3.20;;;1.20;;
14191;SDS011;7177;48.572;7.838;2024-03-23T06:49:11;2.27;;;1.07;;
14191;SDS011;7177;48.572;7.838;2024-03-23T06:51:37;1.37;;;1.10;;
14191;SDS011;7177;48.572;7.838;2024-03-23T06:54:03;3.50;;;1.30;;
14191;SDS011;7177;48.572;7.838;2024-03-23T06:56:29;2.13;;;1.60;;
14191;SDS011;7177;48.572;7.838;2024-03-23T06:58:55;1.93;;;1.30;;
14191;SDS011;7177;48.572;7.838;2024-03-23T07:01:21;2.10;;;1.60;;
14191;SDS011;7177;48.572;7.838;2024-03-23T07:03:46;1.70;;;1.60;;
14191;SDS011;7177;48.572;7.838;2024-03-23T07:06:12;2.63;;;1.87;;
14191;SDS011;7177;48.572;7.838;2024-03-23T07:08:37;1.77;;;1.60;;
14191;SDS011;7177;48.572;7.838;2024-03-23T07:11:03;1.93;;;1.60;;
14191;SDS011;7177;48.572;7.838;2024-03-23T07:13:29;5.17;;;2.30;;
14191;SDS011;7177;48.572;7.838;2024-03-23T07:15:55;2.17;;;1.60;;
14191;SDS011;7177;48.572;7.838;2024-03-23T07:18:22;3.63;;;1.90;;
14191;SDS011;7177;48.572;7.838;2024-03-23T07:20:57;5.97;;;2.40;;
14191;SDS011;7177;48.572;7.838;2024-03-23T07:23:23;3.57;;;2.50;;
14191;SDS011;7177;48.572;7.838;2024-03-23T07:26:02;4.90;;;2.93;;
14191;SDS011;7177;48.572;7.838;2024-03-23T07:28:29;7.63;;;3.50;;
14191;SDS011;7177;48.572;7.838;2024-03-23T07:31:07;4.27;;;3.10;;
14191;SDS011;7177;48.572;7.838;2024-03-23T07:33:34;6.10;;;3.30;;
14191;SDS011;7177;48.572;7.838;2024-03-23T07:36:01;12.20;;;3.63;;
14191;SDS011;7177;48.572;7.838;2024-03-23T07:38:27;8.73;;;3.60;;
14191;SDS011;7177;48.572;7.838;2024-03-23T07:41:03;6.33;;;3.73;;
14191;SDS011;7177;48.572;7.838;2024-03-23T07:43:32;6.73;;;3.73;;
14191;SDS011;7177;48.572;7.838;2024-03-23T07:45:58;8.10;;;3.73;;
14191;SDS011;7177;48.572;7.838;2024-03-23T07:48:24;5.13;;;3.07;;
14191;SDS011;7177;48.572;7.838;2024-03-23T07:50:59;5.70;;;2.97;;
14191;SDS011;7177;48.572;7.838;2024-03-23T07:53:27;4.70;;;3.13;;
14191;SDS011;7177;48.572;7.838;2024-03-23T07:56:02;5.90;;;3.00;;
14191;SDS011;7177;48.572;7.838;2024-03-23T07:58:30;6.27;;;3.00;;
14191;SDS011;7177;48.572;7.838;2024-03-23T08:00:56;5.13;;;3.17;;
14191;SDS011;7177;48.572;7.838;2024-03-23T08:03:28;7.37;;;3.37;;
14191;SDS011;7177;48.572;7.838;2024-03-23T08:05:53;11.57;;;4.77;;
14191;SDS011;7177;48.572;7.838;2024-03-23T08:08:19;10.00;;;4.93;;
14191;SDS011;7177;48.572;7.838;2024-03-23T08:10:51;10.13;;;5.50;;
14191;SDS011;7177;48.572;7.838;2024-03-23T08:13:17;8.43;;;4.77;;
14191;SDS011;7177;48.572;7.838;2024-03-23T08:15:43;15.23;;;5.73;;
14191;SDS011;7177;48.572;7.838;2024-03-23T08:18:09;9.83;;;4.93;;
14191;SDS011;7177;48.572;7.838;2024-03-23T08:20:36;9.77;;;5.20;;
14191;SDS011;7177;48.572;7.838;2024-03-23T08:25:33;9.07;;;4.93;;
14191;SDS011;7177;48.572;7.838;2024-03-23T08:27:59;14.67;;;5.20;;
14191;SDS011;7177;48.572;7.838;2024-03-23T08:30:24;11.30;;;4.67;;
14191;SDS011;7177;48.572;7.838;2024-03-23T08:32:50;9.33;;;4.87;;
14191;SDS011;7177;48.572;7.838;2024-03-23T08:35:16;12.97;;;4.90;;
14191;SDS011;7177;48.572;7.838;2024-03-23T08:37:41;8.97;;;4.57;;
14191;SDS011;7177;48.572;7.838;2024-03-23T08:40:07;12.90;;;5.33;;
14191;SDS011;7177;48.572;7.838;2024-03-23T08:42:33;8.10;;;4.80;;
14191;SDS011;7177;48.572;7.838;2024-03-23T08:44:59;12.13;;;5.57;;
14191;SDS011;7177;48.572;7.838;2024-03-23T08:47:25;14.80;;;5.30;;
14191;SDS011;7177;48.572;7.838;2024-03-23T08:49:50;11.60;;;5.07;;
14191;SDS011;7177;48.572;7.838;2024-03-23T08:52:16;13.43;;;4.73;;
14191;SDS011;7177;48.572;7.838;2024-03-23T08:54:42;10.43;;;4.77;;
14191;SDS011;7177;48.572;7.838;2024-03-23T08:57:08;13.57;;;4.20;;
14191;SDS011;7177;48.572;7.838;2024-03-23T08:59:33;10.47;;;4.60;;
14191;SDS011;7177;48.572;7.838;2024-03-23T09:01:59;11.07;;;4.30;;
14191;SDS011;7177;48.572;7.838;2024-03-23T09:04:25;13.83;;;4.40;;
14191;SDS011;7177;48.572;7.838;2024-03-23T09:06:51;13.60;;;5.00;;
14191;SDS011;7177;48.572;7.838;2024-03-23T09:09:16;8.97;;;4.53;;
14191;SDS011;7177;48.572;7.838;2024-03-23T09:11:42;10.07;;;4.73;;
14191;SDS011;7177;48.572;7.838;2024-03-23T09:14:08;14.33;;;4.60;;
14191;SDS011;7177;48.572;7.838;2024-03-23T09:16:34;7.83;;;4.27;;
14191;SDS011;7177;48.572;7.838;2024-03-23T09:19:00;9.50;;;4.47;;
14191;SDS011;7177;48.572;7.838;2024-03-23T09:21:25;10.03;;;4.50;;
14191;SDS011;7177;48.572;7.838;2024-03-23T09:23:51;12.23;;;4.43;;
14191;SDS011;7177;48.572;7.838;2024-03-23T09:26:17;10.27;;;4.33;;
14191;SDS011;7177;48.572;7.838;2024-03-23T09:28:42;10.90;;;4.10;;
14191;SDS011;7177;48.572;7.838;2024-03-23T09:31:08;5.93;;;2.60;;
14191;SDS011;7177;48.572;7.838;2024-03-23T09:33:39;6.87;;;2.90;;
14191;SDS011;7177;48.572;7.838;2024-03-23T09:36:05;7.33;;;2.73;;
14191;SDS011;7177;48.572;7.838;2024-03-23T09:38:32;5.57;;;3.20;;
14191;SDS011;7177;48.572;7.838;2024-03-23T09:40:58;4.27;;;2.57;;
14191;SDS011;7177;48.572;7.838;2024-03-23T09:43:24;5.37;;;2.50;;
14191;SDS011;7177;48.572;7.838;2024-03-23T09:45:50;11.80;;;3.60;;
14191;SDS011;7177;48.572;7.838;2024-03-23T09:48:17;4.10;;;2.97;;
14191;SDS011;7177;48.572;7.838;2024-03-23T09:50:43;9.47;;;4.00;;
14191;SDS011;7177;48.572;7.838;2024-03-23T09:53:10;15.70;;;4.50;;
14191;SDS011;7177;48.572;7.838;2024-03-23T09:55:37;11.00;;;5.53;;
14191;SDS011;7177;48.572;7.838;2024-03-23T09:58:04;9.20;;;3.27;;
14191;SDS011;7177;48.572;7.838;2024-03-23T10:00:30;6.73;;;3.60;;
14191;SDS011;7177;48.572;7.838;2024-03-23T10:02:59;8.10;;;3.17;;
14191;SDS011;7177;48.572;7.838;2024-03-23T10:05:29;6.77;;;3.50;;
14191;SDS011;7177;48.572;7.838;2024-03-23T10:08:17;10.23;;;3.77;;
14191;SDS011;7177;48.572;7.838;2024-03-23T10:10:44;9.63;;;3.40;;
14191;SDS011;7177;48.572;7.838;2024-03-23T10:13:11;5.93;;;3.40;;
14191;SDS011;7177;48.572;7.838;2024-03-23T10:15:48;13.40;;;3.87;;
14191;SDS011;7177;48.572;7.838;2024-03-23T10:18:23;10.53;;;4.00;;
14191;SDS011;7177;48.572;7.838;2024-03-23T10:21:00;7.73;;;3.93;;
14191;SDS011;7177;48.572;7.838;2024-03-23T10:23:33;9.60;;;3.47;;
14191;SDS011;7177;48.572;7.838;2024-03-23T10:28:53;10.70;;;3.93;;
14191;SDS011;7177;48.572;7.838;2024-03-23T10:31:18;12.07;;;4.00;;
14191;SDS011;7177;48.572;7.838;2024-03-23T10:33:48;9.33;;;3.87;;
14191;SDS011;7177;48.572;7.838;2024-03-23T10:36:14;7.10;;;4.47;;
14191;SDS011;7177;48.572;7.838;2024-03-23T10:38:40;8.43;;;3.83;;
14191;SDS011;7177;48.572;7.838;2024-03-23T10:41:10;9.03;;;4.13;;
14191;SDS011;7177;48.572;7.838;2024-03-23T10:43:36;9.00;;;3.83;;
14191;SDS011;7177;48.572;7.838;2024-03-23T10:46:03;11.60;;;3.90;;
14191;SDS011;7177;48.572;7.838;2024-03-23T10:48:29;6.47;;;3.40;;
14191;SDS011;7177;48.572;7.838;2024-03-23T10:50:54;8.53;;;3.60;;
14191;SDS011;7177;48.572;7.838;2024-03-23T10:53:21;9.43;;;3.90;;
14191;SDS011;7177;48.572;7.838;2024-03-23T10:55:50;8.37;;;4.53;;
14191;SDS011;7177;48.572;7.838;2024-03-23T10:58:18;6.57;;;4.07;;
14191;SDS011;7177;48.572;7.838;2024-03-23T11:00:46;8.90;;;4.10;;
14191;SDS011;7177;48.572;7.838;2024-03-23T11:03:31;9.97;;;4.13;;
14191;SDS011;7177;48.572;7.838;2024-03-23T11:05:57;11.83;;;4.00;;
14191;SDS011;7177;48.572;7.838;2024-03-23T11:08:33;11.90;;;4.20;;
14191;SDS011;7177;48.572;7.838;2024-03-23T11:11:20;7.93;;;4.47;;
14191;SDS011;7177;48.572;7.838;2024-03-23T11:13:50;10.53;;;3.70;;
14191;SDS011;7177;48.572;7.838;2024-03-23T11:16:25;9.07;;;3.47;;
14191;SDS011;7177;48.572;7.838;2024-03-23T11:18:53;7.03;;;2.90;;
14191;SDS011;7177;48.572;7.838;2024-03-23T11:24:20;7.97;;;2.70;;
14191;SDS011;7177;48.572;7.838;2024-03-23T11:26:47;7.87;;;2.63;;
14191;SDS011;7177;48.572;7.838;2024-03-23T11:29:16;6.30;;;2.30;;
14191;SDS011;7177;48.572;7.838;2024-03-23T11:31:46;6.07;;;2.53;;
14191;SDS011;7177;48.572;7.838;2024-03-23T11:34:12;8.10;;;2.93;;
14191;SDS011;7177;48.572;7.838;2024-03-23T11:36:39;6.50;;;2.83;;
14191;SDS011;7177;48.572;7.838;2024-03-23T11:39:38;9.13;;;2.90;;
14191;SDS011;7177;48.572;7.838;2024-03-23T11:41:57;4.63;;;2.53;;
14191;SDS011;7177;48.572;7.838;2024-03-23T11:44:23;7.27;;;2.80;;
14191;SDS011;7177;48.572;7.838;2024-03-23T11:46:51;4.63;;;2.47;;
14191;SDS011;7177;48.572;7.838;2024-03-23T11:49:24;9.00;;;2.80;;
14191;SDS011;7177;48.572;7.838;2024-03-23T11:51:54;6.73;;;2.57;;
14191;SDS011;7177;48.572;7.838;2024-03-23T11:54:21;9.57;;;3.20;;
14191;SDS011;7177;48.572;7.838;2024-03-23T11:56:55;8.10;;;2.37;;
14191;SDS011;7177;48.572;7.838;2024-03-23T11:59:31;9.23;;;3.00;;
14191;SDS011;7177;48.572;7.838;2024-03-23T12:02:05;7.43;;;2.67;;
14191;SDS011;7177;48.572;7.838;2024-03-23T12:04:44;7.53;;;2.93;;
14191;SDS011;7177;48.572;7.838;2024-03-23T12:07:19;10.20;;;2.80;;
14191;SDS011;7177;48.572;7.838;2024-03-23T12:09:47;6.97;;;2.43;;
14191;SDS011;7177;48.572;7.838;2024-03-23T12:12:27;7.47;;;2.50;;
14191;SDS011;7177;48.572;7.838;2024-03-23T12:15:05;8.40;;;2.57;;
14191;SDS011;7177;48.572;7.838;2024-03-23T12:17:33;6.90;;;2.63;;
14191;SDS011;7177;48.572;7.838;2024-03-23T12:19:59;6.63;;;2.27;;
14191;SDS011;7177;48.572;7.838;2024-03-23T12:22:26;6.83;;;2.43;;
14191;SDS011;7177;48.572;7.838;2024-03-23T12:24:52;5.67;;;2.93;;
14191;SDS011;7177;48.572;7.838;2024-03-23T12:27:17;7.87;;;2.57;;
14191;SDS011;7177;48.572;7.838;2024-03-23T12:29:43;7.60;;;2.07;;
14191;SDS011;7177;48.572;7.838;2024-03-23T12:32:11;6.60;;;2.27;;
14191;SDS011;7177;48.572;7.838;2024-03-23T12:34:37;5.33;;;2.17;;
14191;SDS011;7177;48.572;7.838;2024-03-23T12:37:02;6.70;;;2.97;;
14191;SDS011;7177;48.572;7.838;2024-03-23T12:39:28;6.47;;;1.90;;
14191;SDS011;7177;48.572;7.838;2024-03-23T12:41:53;7.03;;;1.73;;
14191;SDS011;7177;48.572;7.838;2024-03-23T12:44:19;4.60;;;1.70;;
14191;SDS011;7177;48.572;7.838;2024-03-23T12:46:45;2.53;;;1.10;;
14191;SDS011;7177;48.572;7.838;2024-03-23T12:49:11;5.53;;;1.40;;
14191;SDS011;7177;48.572;7.838;2024-03-23T12:51:37;2.20;;;1.20;;
14191;SDS011;7177;48.572;7.838;2024-03-23T12:54:03;3.70;;;1.30;;
14191;SDS011;7177;48.572;7.838;2024-03-23T12:56:28;1.50;;;1.20;;
14191;SDS011;7177;48.572;7.838;2024-03-23T12:58:55;1.93;;;1.20;;
14191;SDS011;7177;48.572;7.838;2024-03-23T13:01:22;4.93;;;1.43;;
14191;SDS011;7177;48.572;7.838;2024-03-23T13:03:49;4.37;;;1.60;;
14191;SDS011;7177;48.572;7.838;2024-03-23T13:06:15;7.97;;;1.63;;
14191;SDS011;7177;48.572;7.838;2024-03-23T13:08:42;5.90;;;2.10;;
14191;SDS011;7177;48.572;7.838;2024-03-23T13:11:09;4.97;;;1.60;;
14191;SDS011;7177;48.572;7.838;2024-03-23T13:13:35;3.30;;;1.43;;
14191;SDS011;7177;48.572;7.838;2024-03-23T13:16:01;3.63;;;1.63;;
14191;SDS011;7177;48.572;7.838;2024-03-23T13:18:27;11.77;;;1.63;;
14191;SDS011;7177;48.572;7.838;2024-03-23T13:20:54;6.53;;;1.57;;
14191;SDS011;7177;48.572;7.838;2024-03-23T13:23:19;3.03;;;1.50;;
14191;SDS011;7177;48.572;7.838;2024-03-23T13:25:51;4.10;;;1.53;;
14191;SDS011;7177;48.572;7.838;2024-03-23T13:28:18;3.80;;;1.63;;
14191;SDS011;7177;48.572;7.838;2024-03-23T13:30:54;4.77;;;1.57;;
14191;SDS011;7177;48.572;7.838;2024-03-23T13:33:20;5.90;;;1.47;;
14191;SDS011;7177;48.572;7.838;2024-03-23T13:35:53;5.77;;;1.60;;
14191;SDS011;7177;48.572;7.838;2024-03-23T13:38:20;5.40;;;1.73;;
14191;SDS011;7177;48.572;7.838;2024-03-23T13:40:55;3.10;;;1.50;;
14191;SDS011;7177;48.572;7.838;2024-03-23T13:43:23;5.10;;;1.60;;
14191;SDS011;7177;48.572;7.838;2024-03-23T13:45:50;3.43;;;1.40;;
14191;SDS011;7177;48.572;7.838;2024-03-23T13:48:19;9.53;;;4.33;;
14191;SDS011;7177;48.572;7.838;2024-03-23T13:50:45;5.23;;;1.57;;
14191;SDS011;7177;48.572;7.838;2024-03-23T13:53:13;3.07;;;1.20;;
14191;SDS011;7177;48.572;7.838;2024-03-23T13:55:45;3.57;;;1.57;;
14191;SDS011;7177;48.572;7.838;2024-03-23T13:58:14;3.70;;;1.47;;
14191;SDS011;7177;48.572;7.838;2024-03-23T14:00:40;3.80;;;1.40;;
14191;SDS011;7177;48.572;7.838;2024-03-23T14:03:07;3.57;;;1.43;;
14191;SDS011;7177;48.572;7.838;2024-03-23T14:05:34;5.63;;;1.50;;
14191;SDS011;7177;48.572;7.838;2024-03-23T14:07:59;4.33;;;1.33;;
14191;SDS011;7177;48.572;7.838;2024-03-23T14:10:25;4.23;;;1.47;;
14191;SDS011;7177;48.572;7.838;2024-03-23T14:12:51;2.00;;;1.23;;
14191;SDS011;7177;48.572;7.838;2024-03-23T14:15:16;5.43;;;1.40;;
14191;SDS011;7177;48.572;7.838;2024-03-23T14:17:43;4.27;;;1.50;;
14191;SDS011;7177;48.572;7.838;2024-03-23T14:20:09;3.20;;;1.70;;
14191;SDS011;7177;48.572;7.838;2024-03-23T14:22:36;5.43;;;2.13;;
14191;SDS011;7177;48.572;7.838;2024-03-23T14:25:02;3.77;;;1.87;;
14191;SDS011;7177;48.572;7.838;2024-03-23T14:27:28;7.47;;;1.90;;
14191;SDS011;7177;48.572;7.838;2024-03-23T14:29:54;3.67;;;1.20;;
14191;SDS011;7177;48.572;7.838;2024-03-23T14:32:21;1.27;;;0.93;;
14191;SDS011;7177;48.572;7.838;2024-03-23T14:34:46;2.20;;;1.13;;
14191;SDS011;7177;48.572;7.838;2024-03-23T14:37:12;1.87;;;1.07;;
14191;SDS011;7177;48.572;7.838;2024-03-23T14:39:37;1.47;;;1.10;;
14191;SDS011;7177;48.572;7.838;2024-03-23T14:42:06;0.97;;;0.90;;
14191;SDS011;7177;48.572;7.838;2024-03-23T14:44:33;1.13;;;1.00;;
14191;SDS011;7177;48.572;7.838;2024-03-23T14:46:59;1.63;;;0.80;;
14191;SDS011;7177;48.572;7.838;2024-03-23T14:49:24;1.67;;;1.30;;
14191;SDS011;7177;48.572;7.838;2024-03-23T14:51:51;2.30;;;1.20;;
14191;SDS011;7177;48.572;7.838;2024-03-23T14:54:16;1.07;;;0.90;;
14191;SDS011;7177;48.572;7.838;2024-03-23T14:56:42;6.30;;;1.10;;
14191;SDS011;7177;48.572;7.838;2024-03-23T14:59:07;3.60;;;1.17;;
14191;SDS011;7177;48.572;7.838;2024-03-23T15:01:33;2.27;;;1.10;;
14191;SDS011;7177;48.572;7.838;2024-03-23T15:03:59;3.30;;;1.13;;
14191;SDS011;7177;48.572;7.838;2024-03-23T15:06:25;3.10;;;1.20;;
14191;SDS011;7177;48.572;7.838;2024-03-23T15:08:50;3.10;;;1.30;;
14191;SDS011;7177;48.572;7.838;2024-03-23T15:11:16;3.37;;;1.20;;
14191;SDS011;7177;48.572;7.838;2024-03-23T15:13:44;2.63;;;1.10;;
14191;SDS011;7177;48.572;7.838;2024-03-23T15:16:09;2.10;;;1.17;;
14191;SDS011;7177;48.572;7.838;2024-03-23T15:18:35;3.83;;;1.30;;
14191;SDS011;7177;48.572;7.838;2024-03-23T15:21:01;4.13;;;1.40;;
14191;SDS011;7177;48.572;7.838;2024-03-23T15:23:31;3.70;;;1.33;;
14191;SDS011;7177;48.572;7.838;2024-03-23T15:26:00;3.87;;;1.60;;
14191;SDS011;7177;48.572;7.838;2024-03-23T15:28:27;3.90;;;1.20;;
14191;SDS011;7177;48.572;7.838;2024-03-23T15:31:05;3.73;;;1.70;;
14191;SDS011;7177;48.572;7.838;2024-03-23T15:33:32;2.83;;;1.50;;
14191;SDS011;7177;48.572;7.838;2024-03-23T15:36:00;2.30;;;1.10;;
14191;SDS011;7177;48.572;7.838;2024-03-23T15:38:31;1.90;;;0.93;;
14191;SDS011;7177;48.572;7.838;2024-03-23T15:40:57;2.47;;;1.10;;
14191;SDS011;7177;48.572;7.838;2024-03-23T15:43:23;1.27;;;1.13;;
14191;SDS011;7177;48.572;7.838;2024-03-23T15:45:55;5.00;;;1.70;;
14191;SDS011;7177;48.572;7.838;2024-03-23T15:48:25;3.13;;;1.10;;
14191;SDS011;7177;48.572;7.838;2024-03-23T15:50:55;2.73;;;1.30;;
14191;SDS011;7177;48.572;7.838;2024-03-23T15:53:22;3.50;;;1.47;;
14191;SDS011;7177;48.572;7.838;2024-03-23T15:55:59;2.93;;;1.37;;
14191;SDS011;7177;48.572;7.838;2024-03-23T15:58:27;3.07;;;1.30;;
14191;SDS011;7177;48.572;7.838;2024-03-23T16:01:03;3.27;;;1.30;;